Radiosonde details



Informationen :

Serial : MEC501089
Type : Meteomodem M20
Frequency : 403.6MHz
Launchsite : Leba
Nearest town : Edinburgh of the Seven Seas, SH (327.9km)

Altitude (Max) : 159087m at 2026-09-02 12:34:03
Speed (Max) : 102km/h at altitude 1134m

Average speed : 44km/h
Average ascent rate : 8m/s
Average descent rate : 0m/s
Ascent rate (Max) : 10.2m/s
Descent rate (Max): 0m/s

First frame :
SP3BTT-11 at 2026-09-02 11:46:48 at altitude 9902m (OG: 9829m)
Last frame :
AA1-15 at 2026-09-02 12:59:24 at altitude 159087m (OG: 159045m)

Flighttime : 1h12m36s
Ascent time : 47m15s
Descent time : 25m21s
Uptime : 0h0m0s
Killtimer : -

Distance (Straight line distance): 10932km

Distance (Route):


Frames : 296


Measurement :

Temperature : -47.8°C
Humidity : 0%
Pressure : 20.4hPa


Vertical profile (SkewT) :


Elevation profile :



Receiving stations :


Receiver Frames First received Last received
AA1-15 290 2026-09-02 12:33:31 2026-09-02 12:59:24
SP3BTT-10 6 2026-09-02 11:46:48 2026-09-02 11:54:22

Share per receiver :



All frames :


Receiver Date Latitude Longitude Direction Speed Altitude Climb Temperature Humidity Pressure Voltage Killtimer Uptime BKT XDATA
AA1-152026-09-02 12:59:24-40.00062-12.703340km/h159087m0m/s-47.8°C0%20.4hPa2.3V00:00:0000:00:0000:00:00
AA1-152026-09-02 12:59:08-40.00062-12.703340km/h159087m0m/s-47.3°C0%17.6hPa2.3V00:00:0000:00:0000:00:00
AA1-152026-09-02 12:58:49-40.00062-12.703340km/h159087m0m/s-44.2°C0%14.4hPa2.3V00:00:0000:00:0000:00:00
AA1-152026-09-02 12:58:37-40.00062-12.703340km/h159087m0m/s-42.8°C0%12.7hPa2.3V00:00:0000:00:0000:00:00
AA1-152026-09-02 12:58:26-40.00062-12.703340km/h159087m0m/s-40.4°C0.1%11hPa2.3V00:00:0000:00:0000:00:00
AA1-152026-09-02 12:58:10-40.00062-12.703340km/h159087m0m/s-39.3°C0.3%8.9hPa2.3V00:00:0000:00:0000:00:00
AA1-152026-09-02 12:57:59-40.00062-12.703340km/h159087m0m/s-36.3°C0.6%7.6hPa2.3V00:00:0000:00:0000:00:00
AA1-152026-09-02 12:57:47-40.00062-12.703340km/h159087m0m/s-33.3°C0.7%6.4hPa2.3V00:00:0000:00:0000:00:00
AA1-152026-09-02 12:57:37-40.00062-12.703340km/h159087m0m/s-32.4°C0.8%5.5hPa2.3V00:00:0000:00:0000:00:00
AA1-152026-09-02 12:57:27-40.00062-12.703340km/h159087m0m/s-32.5°C0.9%4.9hPa2.3V00:00:0000:00:0000:00:00
AA1-152026-09-02 12:57:13-40.00062-12.703340km/h159087m0m/s-31.8°C0.8%4.8hPa2.3V00:00:0000:00:0000:00:00
AA1-152026-09-02 12:57:03-40.00062-12.703340km/h159087m0m/s-32°C0.8%4.9hPa2.3V00:00:0000:00:0000:00:00
AA1-152026-09-02 12:56:52-40.00062-12.703340km/h159087m0m/s-31.9°C0.9%5hPa2.3V00:00:0000:00:0000:00:00
AA1-152026-09-02 12:56:41-40.00062-12.703340km/h159087m0m/s-31.7°C0.9%5hPa2.3V00:00:0000:00:0000:00:00
AA1-152026-09-02 12:56:31-40.00062-12.703340km/h159087m0m/s-31.8°C0.9%5.1hPa2.3V00:00:0000:00:0000:00:00
AA1-152026-09-02 12:56:19-40.00062-12.703340km/h159087m0m/s-31.6°C0.9%5.2hPa2.3V00:00:0000:00:0000:00:00
AA1-152026-09-02 12:56:08-40.00062-12.703340km/h159087m0m/s-31.8°C0.9%5.3hPa2.3V00:00:0000:00:0000:00:00
AA1-152026-09-02 12:55:57-40.00062-12.703340km/h159087m0m/s-32°C0.9%5.4hPa2.3V00:00:0000:00:0000:00:00
AA1-152026-09-02 12:55:46-40.00062-12.703340km/h159087m0m/s-32.4°C0.9%5.4hPa2.3V00:00:0000:00:0000:00:00
AA1-152026-09-02 12:55:36-40.00062-12.703340km/h159087m0m/s-32.5°C0.9%5.5hPa2.3V00:00:0000:00:0000:00:00
AA1-152026-09-02 12:55:26-40.00062-12.703340km/h159087m0m/s-32.5°C0.8%5.6hPa2.3V00:00:0000:00:0000:00:00
AA1-152026-09-02 12:55:14-40.00062-12.703340km/h159087m0m/s-32.7°C0.9%5.6hPa2.3V00:00:0000:00:0000:00:00
AA1-152026-09-02 12:55:04-40.00062-12.703340km/h159087m0m/s-32.9°C0.9%5.7hPa2.3V00:00:0000:00:0000:00:00
AA1-152026-09-02 12:54:52-40.00062-12.703340km/h159087m0m/s-33.3°C0.9%5.8hPa2.3V00:00:0000:00:0000:00:00
AA1-152026-09-02 12:54:41-40.00062-12.703340km/h159087m0m/s-33.5°C0.9%5.9hPa2.3V00:00:0000:00:0000:00:00
AA1-152026-09-02 12:54:30-40.00062-12.703340km/h159087m0m/s-33.4°C0.9%6hPa2.3V00:00:0000:00:0000:00:00
AA1-152026-09-02 12:54:20-40.00062-12.703340km/h159087m0m/s-33°C0.9%6hPa2.3V00:00:0000:00:0000:00:00
AA1-152026-09-02 12:54:10-40.00062-12.703340km/h159087m0m/s-33.2°C0.9%6.1hPa2.3V00:00:0000:00:0000:00:00
AA1-152026-09-02 12:53:59-40.00062-12.703340km/h159087m0m/s-33.5°C0.8%6.1hPa2.3V00:00:0000:00:0000:00:00
AA1-152026-09-02 12:53:49-40.00062-12.703340km/h159087m0m/s-33.6°C0.8%6.2hPa2.3V00:00:0000:00:0000:00:00
AA1-152026-09-02 12:53:38-40.00062-12.703340km/h159087m0m/s-33.8°C0.8%6.3hPa2.3V00:00:0000:00:0000:00:00
AA1-152026-09-02 12:53:27-40.00062-12.703340km/h159087m0m/s-34.4°C0.8%6.4hPa2.3V00:00:0000:00:0000:00:00
AA1-152026-09-02 12:53:16-40.00062-12.703340km/h159087m0m/s-34.9°C0.8%6.4hPa2.3V00:00:0000:00:0000:00:00
AA1-152026-09-02 12:53:05-40.00062-12.703340km/h159087m0m/s-35°C0.8%6.5hPa2.3V00:00:0000:00:0000:00:00
AA1-152026-09-02 12:52:54-40.00062-12.703340km/h159087m0m/s-35.3°C0.9%6.7hPa2.3V00:00:0000:00:0000:00:00
AA1-152026-09-02 12:52:42-40.00062-12.703340km/h159087m0m/s-35.2°C0.8%6.7hPa2.3V00:00:0000:00:0000:00:00
AA1-152026-09-02 12:52:30-40.00062-12.703340km/h159087m0m/s-34.9°C0.8%6.8hPa2.3V00:00:0000:00:0000:00:00
AA1-152026-09-02 12:52:21-40.00062-12.703340km/h159087m0m/s-34.9°C0.7%7hPa2.3V00:00:0000:00:0000:00:00
AA1-152026-09-02 12:52:10-40.00062-12.703340km/h159087m0m/s-34.8°C0.8%7hPa2.3V00:00:0000:00:0000:00:00
AA1-152026-09-02 12:51:59-40.00062-12.703340km/h159087m0m/s-34.8°C0.7%7.1hPa2.3V00:00:0000:00:0000:00:00
AA1-152026-09-02 12:51:50-40.00062-12.703340km/h159087m0m/s-35.7°C0.7%7.2hPa2.3V00:00:0000:00:0000:00:00
AA1-152026-09-02 12:51:39-40.00062-12.703340km/h159087m0m/s-36.2°C0.7%7.2hPa2.3V00:00:0000:00:0000:00:00
AA1-152026-09-02 12:51:28-40.00062-12.703340km/h159087m0m/s-36.7°C0.6%7.4hPa2.3V00:00:0000:00:0000:00:00
AA1-152026-09-02 12:51:17-40.00062-12.703340km/h159087m0m/s-36.8°C0.6%7.4hPa2.3V00:00:0000:00:0000:00:00
AA1-152026-09-02 12:51:06-40.00062-12.703340km/h159087m0m/s-37.3°C0.6%7.5hPa2.3V00:00:0000:00:0000:00:00
AA1-152026-09-02 12:50:55-40.00062-12.703340km/h159087m0m/s-37.7°C0.6%7.7hPa2.3V00:00:0000:00:0000:00:00
AA1-152026-09-02 12:50:44-40.00062-12.703340km/h159087m0m/s-38°C0.6%7.8hPa2.3V00:00:0000:00:0000:00:00
AA1-152026-09-02 12:50:34-40.00062-12.703340km/h159087m0m/s-38.1°C0.7%7.8hPa2.3V00:00:0000:00:0000:00:00
AA1-152026-09-02 12:50:24-40.00062-12.703340km/h159087m0m/s-38.3°C0.7%7.9hPa2.3V00:00:0000:00:0000:00:00
AA1-152026-09-02 12:50:13-40.00062-12.703340km/h159087m0m/s-38.5°C0.8%8hPa2.3V00:00:0000:00:0000:00:00
AA1-152026-09-02 12:50:03-40.00062-12.703340km/h159087m0m/s-38.6°C0.8%8.1hPa2.3V00:00:0000:00:0000:00:00
AA1-152026-09-02 12:49:53-40.00062-12.703340km/h159087m0m/s-38.7°C0.8%8.3hPa2.3V00:00:0000:00:0000:00:00
AA1-152026-09-02 12:49:42-40.00062-12.703340km/h159087m0m/s-38.8°C0.7%8.3hPa2.3V00:00:0000:00:0000:00:00
AA1-152026-09-02 12:49:31-40.00062-12.703340km/h159087m0m/s-38.7°C0.8%8.4hPa2.3V00:00:0000:00:0000:00:00
AA1-152026-09-02 12:49:20-40.00062-12.703340km/h159087m0m/s-38.9°C0.7%8.6hPa2.3V00:00:0000:00:0000:00:00
AA1-152026-09-02 12:49:10-40.00062-12.703340km/h159087m0m/s-39.3°C0.8%8.7hPa2.3V00:00:0000:00:0000:00:00
AA1-152026-09-02 12:49:00-40.00062-12.703340km/h159087m0m/s-39.5°C0.8%8.8hPa2.3V00:00:0000:00:0000:00:00
AA1-152026-09-02 12:48:49-40.00062-12.703340km/h159087m0m/s-39.6°C0.8%8.9hPa2.3V00:00:0000:00:0000:00:00
AA1-152026-09-02 12:48:39-40.00062-12.703340km/h159087m0m/s-39.2°C0.9%9hPa2.3V00:00:0000:00:0000:00:00
AA1-152026-09-02 12:48:28-40.00062-12.703340km/h159087m0m/s-39.3°C0.9%9.1hPa2.3V00:00:0000:00:0000:00:00
AA1-152026-09-02 12:48:17-40.00062-12.703340km/h159087m0m/s-39.6°C0.9%9.2hPa2.3V00:00:0000:00:0000:00:00
AA1-152026-09-02 12:48:07-40.00062-12.703340km/h159087m0m/s-39.7°C0.9%9.3hPa2.3V00:00:0000:00:0000:00:00
AA1-152026-09-02 12:47:55-40.00062-12.703340km/h159087m0m/s-39.5°C0.9%9.5hPa2.3V00:00:0000:00:0000:00:00
AA1-152026-09-02 12:47:44-40.00062-12.703340km/h159087m0m/s-39.5°C0.9%9.6hPa2.3V00:00:0000:00:0000:00:00
AA1-152026-09-02 12:47:33-40.00062-12.703340km/h159087m0m/s-39.6°C1%9.7hPa2.3V00:00:0000:00:0000:00:00
AA1-152026-09-02 12:47:22-40.00062-12.703340km/h159087m0m/s-39.4°C1%9.8hPa2.3V00:00:0000:00:0000:00:00
AA1-152026-09-02 12:47:11-40.00062-12.703340km/h159087m0m/s-39.4°C1%9.9hPa2.3V00:00:0000:00:0000:00:00
AA1-152026-09-02 12:47:01-40.00062-12.703340km/h159087m0m/s-39.5°C1%10hPa2.3V00:00:0000:00:0000:00:00
AA1-152026-09-02 12:46:51-40.00062-12.703340km/h159087m0m/s-39.7°C1%10.2hPa2.3V00:00:0000:00:0000:00:00
AA1-152026-09-02 12:46:40-40.00062-12.703340km/h159087m0m/s-39.9°C1.1%10.3hPa2.3V00:00:0000:00:0000:00:00
AA1-152026-09-02 12:46:30-40.00062-12.703340km/h159087m0m/s-40°C1.1%10.4hPa2.3V00:00:0000:00:0000:00:00
AA1-152026-09-02 12:46:19-40.00062-12.703340km/h159087m0m/s-39.8°C1.1%10.5hPa2.3V00:00:0000:00:0000:00:00
AA1-152026-09-02 12:46:08-40.00062-12.703340km/h159087m0m/s-40.1°C1.1%10.6hPa2.3V00:00:0000:00:0000:00:00
AA1-152026-09-02 12:45:58-40.00062-12.703340km/h159087m0m/s-40.2°C1.1%10.7hPa2.3V00:00:0000:00:0000:00:00
AA1-152026-09-02 12:45:47-40.00062-12.703340km/h159087m0m/s-40.6°C1.2%10.9hPa2.3V00:00:0000:00:0000:00:00
AA1-152026-09-02 12:45:36-40.00062-12.703340km/h159087m0m/s-40.5°C1.2%11hPa2.3V00:00:0000:00:0000:00:00
AA1-152026-09-02 12:45:26-40.00062-12.703340km/h159087m0m/s-40.5°C1.2%11.1hPa2.3V00:00:0000:00:0000:00:00
AA1-152026-09-02 12:45:14-40.00062-12.703340km/h159087m0m/s-40.3°C1.2%11.3hPa2.3V00:00:0000:00:0000:00:00
AA1-152026-09-02 12:45:04-40.00062-12.703340km/h159087m0m/s-40.7°C1.3%11.4hPa2.3V00:00:0000:00:0000:00:00
AA1-152026-09-02 12:44:53-40.00062-12.703340km/h159087m0m/s-41°C1.3%11.6hPa2.3V00:00:0000:00:0000:00:00
AA1-152026-09-02 12:44:40-40.00062-12.703340km/h159087m0m/s-41.2°C1.4%11.7hPa2.3V00:00:0000:00:0000:00:00
AA1-152026-09-02 12:44:31-40.00062-12.703340km/h159087m0m/s-41.7°C1.4%11.8hPa2.3V00:00:0000:00:0000:00:00
AA1-152026-09-02 12:44:18-40.00062-12.703340km/h159087m0m/s-42°C1.4%11.9hPa2.3V00:00:0000:00:0000:00:00
AA1-152026-09-02 12:44:08-40.00062-12.703340km/h159087m0m/s-42.2°C1.5%12.1hPa2.3V00:00:0000:00:0000:00:00
AA1-152026-09-02 12:43:56-40.00062-12.703340km/h159087m0m/s-42.7°C1.6%12.2hPa2.3V00:00:0000:00:0000:00:00
AA1-152026-09-02 12:43:45-40.00062-12.703340km/h159087m0m/s-43.2°C1.7%12.3hPa2.3V00:00:0000:00:0000:00:00
AA1-152026-09-02 12:43:35-40.00062-12.703340km/h159087m0m/s-43.3°C1.8%12.4hPa2.3V00:00:0000:00:0000:00:00
AA1-152026-09-02 12:43:24-40.00062-12.703340km/h159087m0m/s-43.7°C2.1%12.6hPa2.3V00:00:0000:00:0000:00:00
AA1-152026-09-02 12:43:13-40.00062-12.703340km/h159087m0m/s-43.7°C2.2%12.7hPa2.3V00:00:0000:00:0000:00:00
AA1-152026-09-02 12:43:03-40.00062-12.703340km/h159087m0m/s-44°C2.4%12.8hPa2.3V00:00:0000:00:0000:00:00
AA1-152026-09-02 12:42:52-40.00062-12.703340km/h159087m0m/s-44°C2.6%13hPa2.3V00:00:0000:00:0000:00:00
AA1-152026-09-02 12:42:41-40.00062-12.703340km/h159087m0m/s-44.1°C2.7%13.1hPa2.3V00:00:0000:00:0000:00:00
AA1-152026-09-02 12:42:30-40.00062-12.703340km/h159087m0m/s-44°C2.8%13.3hPa2.3V00:00:0000:00:0000:00:00
AA1-152026-09-02 12:42:20-40.00062-12.703340km/h159087m0m/s-44.3°C2.9%13.4hPa2.3V00:00:0000:00:0000:00:00
AA1-152026-09-02 12:42:0955.0828019.731530km/h159087m0m/s-45°C3.1%13.6hPa2.4V00:00:0000:00:0000:00:00
AA1-152026-09-02 12:41:5955.0826619.7303079°47km/h159087m2.3m/s-44.8°C3.4%13.8hPa2.4V00:00:0000:00:0000:00:00
AA1-152026-09-02 12:41:4955.0824619.72930269°13km/h2635m8.2m/s-44.6°C3.5%13.9hPa2.4V00:00:0000:00:0000:00:00
AA1-152026-09-02 12:41:3855.0825419.72989269°15km/h2553m8.1m/s-44.7°C3.8%14hPa2.4V00:00:0000:00:0000:00:00
AA1-152026-09-02 12:41:2755.0824519.73069270°16km/h2486m8m/s-44.5°C3.7%14.2hPa2.4V00:00:0000:00:0000:00:00
AA1-152026-09-02 12:41:1655.0824119.73124271°13km/h2396m8.1m/s-44.4°C3.6%14.4hPa2.4V00:00:0000:00:0000:00:00
AA1-152026-09-02 12:41:0655.0823119.73173270°13km/h2339m8.1m/s-44.5°C3.6%14.5hPa2.4V00:00:0000:00:0000:00:00
AA1-152026-09-02 12:40:5555.0824219.73259270°16km/h2206m8m/s-44.6°C3.4%14.7hPa2.4V00:00:0000:00:0000:00:00
AA1-152026-09-02 12:40:4455.0825119.73333270°13km/h2102m8.1m/s-45.1°C3.5%14.9hPa2.4V00:00:0000:00:0000:00:00
AA1-152026-09-02 12:40:3455.0827219.73397270°16km/h1999m8m/s-45.6°C3.4%15hPa2.4V00:00:0000:00:0000:00:00
AA1-152026-09-02 12:40:3455.0826619.73412271°13km/h1994m7.8m/s-45.8°C3.4%15hPa2.4V00:00:0000:00:0000:00:00
AA1-152026-09-02 12:40:3155.0825519.73436279°13km/h1982m8.9m/s-45.9°C3.5%15.1hPa2.4V00:00:0000:00:0000:00:00
AA1-152026-09-02 12:40:2955.0825819.73457270°13km/h1951m7.9m/s-46.2°C3.4%15.1hPa2.4V00:00:0000:00:0000:00:00
AA1-152026-09-02 12:40:2755.0825919.73463272°13km/h1943m8m/s-46.3°C3.5%15.1hPa2.4V00:00:0000:00:0000:00:00
AA1-152026-09-02 12:40:2655.0826019.73469271°15km/h1935m8.1m/s-46.4°C3.5%15.2hPa2.4V00:00:0000:00:0000:00:00
AA1-152026-09-02 12:40:2455.0826219.73475270°16km/h1924m7.9m/s-46.5°C3.5%15.2hPa2.4V00:00:0000:00:0000:00:00
AA1-152026-09-02 12:40:2255.0826419.73486270°13km/h1904m8m/s-46.6°C3.4%15.2hPa2.4V00:00:0000:00:0000:00:00
AA1-152026-09-02 12:40:2155.0826419.73500278°18km/h1886m9.6m/s-46.5°C3.4%15.2hPa2.4V00:00:0000:00:0000:00:00
AA1-152026-09-02 12:40:1955.0826219.73509266°16km/h1879m8.9m/s-46.6°C3.4%15.2hPa2.4V00:00:0000:00:0000:00:00
AA1-152026-09-02 12:40:1855.0826119.73515270°13km/h1862m8.1m/s-46.8°C3.4%15.3hPa2.4V00:00:0000:00:0000:00:00
AA1-152026-09-02 12:40:1755.0826219.73519270°15km/h1853m8m/s-46.8°C3.5%15.3hPa2.4V00:00:0000:00:0000:00:00
AA1-152026-09-02 12:40:1555.0826319.73523271°16km/h1843m8m/s-46.8°C3.5%15.3hPa2.4V00:00:0000:00:0000:00:00
AA1-152026-09-02 12:40:1355.0825919.73533270°13km/h1824m7.9m/s-47°C3.5%15.4hPa2.4V00:00:0000:00:0000:00:00
AA1-152026-09-02 12:40:1255.0825919.73537270°15km/h1820m8.1m/s-47°C3.6%15.3hPa2.4V00:00:0000:00:0000:00:00
AA1-152026-09-02 12:40:1055.0826019.73547270°13km/h1805m8m/s-47°C3.6%15.4hPa2.4V00:00:0000:00:0000:00:00
AA1-152026-09-02 12:40:0955.0825919.73553269°13km/h1797m8.1m/s-47.1°C3.6%15.4hPa2.4V00:00:0000:00:0000:00:00
AA1-152026-09-02 12:40:0655.0825719.73573273°13km/h1774m8.3m/s-47.2°C3.6%15.4hPa2.4V00:00:0000:00:0000:00:00
AA1-152026-09-02 12:40:0455.0825719.73578270°13km/h1765m8m/s-47.3°C3.7%15.5hPa2.4V00:00:0000:00:0000:00:00
AA1-152026-09-02 12:40:0355.0825919.73585272°15km/h1750m8m/s-47.3°C3.7%15.5hPa2.4V00:00:0000:00:0000:00:00
AA1-152026-09-02 12:40:0255.0825919.73590269°16km/h1742m8.1m/s-47.3°C3.7%15.5hPa2.4V00:00:0000:00:0000:00:00
AA1-152026-09-02 12:40:0055.0825619.73597269°13km/h1736m8.2m/s-47.4°C3.7%15.5hPa2.4V00:00:0000:00:0000:00:00
AA1-152026-09-02 12:39:5955.0824419.73649269°13km/h1722m7.9m/s-47.5°C3.8%15.6hPa2.4V00:00:0000:00:0000:00:00
AA1-152026-09-02 12:39:5855.0824319.73656268°13km/h1715m7.7m/s-47.5°C3.9%15.6hPa2.4V00:00:0000:00:0000:00:00
AA1-152026-09-02 12:39:5655.0824319.73661270°15km/h1709m8.4m/s-47.6°C3.9%15.6hPa2.4V00:00:0000:00:0000:00:00
AA1-152026-09-02 12:39:5555.0824319.73665271°15km/h1703m8.1m/s-47.6°C3.9%15.6hPa2.4V00:00:0000:00:0000:00:00
AA1-152026-09-02 12:39:5455.0823819.73682270°16km/h1693m7.9m/s-47.6°C4%15.6hPa2.4V00:00:0000:00:0000:00:00
AA1-152026-09-02 12:39:5355.0823819.73682270°13km/h1688m8.1m/s-47.6°C4%15.7hPa2.4V00:00:0000:00:0000:00:00
AA1-152026-09-02 12:39:5055.0823919.73678270°13km/h1684m8m/s-47.7°C4%15.7hPa2.4V00:00:0000:00:0000:00:00
AA1-152026-09-02 12:39:4955.0824119.73669270°15km/h1680m8.2m/s-47.6°C4.1%15.7hPa2.4V00:00:0000:00:0000:00:00
AA1-152026-09-02 12:39:4855.0824619.73745261°97km/h1664m7.9m/s-47.6°C4.1%15.7hPa2.4V00:00:0000:00:0000:00:00
AA1-152026-09-02 12:39:4755.0825319.73787253°97km/h1657m8.1m/s-47.5°C4.1%15.8hPa2.4V00:00:0000:00:0000:00:00
AA1-152026-09-02 12:39:4355.0827019.73861241°99km/h1637m8.4m/s-47.6°C4.2%15.8hPa2.4V00:00:0000:00:0000:00:00
AA1-152026-09-02 12:39:4255.0828519.73900238°93km/h1626m8m/s-47.4°C4.2%15.8hPa2.4V00:00:0000:00:0000:00:00
AA1-152026-09-02 12:39:4155.0835719.74016213°100km/h1580m8.1m/s-47.4°C4.2%15.9hPa2.4V00:00:0000:00:0000:00:00
AA1-152026-09-02 12:39:3955.0837519.74036208°91km/h1574m8.1m/s-47.6°C4.2%15.9hPa2.4V00:00:0000:00:0000:00:00
AA1-152026-09-02 12:39:3855.0839619.74054202°95km/h1567m8.3m/s-47.5°C4.2%15.9hPa2.4V00:00:0000:00:0000:00:00
AA1-152026-09-02 12:39:3755.0841919.74067193°99km/h1560m8m/s-47.4°C4.2%15.9hPa2.4V00:00:0000:00:0000:00:00
AA1-152026-09-02 12:39:3555.0844419.74075189°95km/h1551m7.9m/s-47.5°C4.3%15.9hPa2.4V00:00:0000:00:0000:00:00
AA1-152026-09-02 12:39:3155.0851719.74072169°97km/h1526m8m/s-47.5°C4.3%16hPa2.4V00:00:0000:00:0000:00:00
AA1-152026-09-02 12:39:3055.0856619.74048159°99km/h1508m7.9m/s-47.4°C4.3%16hPa2.4V00:00:0000:00:0000:00:00
AA1-152026-09-02 12:39:2755.0866519.73921125°95km/h1463m8.1m/s-47.5°C4.2%16.1hPa2.4V00:00:0000:00:0000:00:00
AA1-152026-09-02 12:39:2655.0867819.73886119°99km/h1454m9.1m/s-47.4°C4.2%16.1hPa2.4V00:00:0000:00:0000:00:00
AA1-152026-09-02 12:39:2455.0868919.73851115°95km/h1450m8.5m/s-47.3°C4.2%16.1hPa2.4V00:00:0000:00:0000:00:00
AA1-152026-09-02 12:39:2255.0870219.7373697°99km/h1424m8.4m/s-47.4°C4.2%16.2hPa2.4V00:00:0000:00:0000:00:00
AA1-152026-09-02 12:39:2155.0870119.7370094°95km/h1412m8.1m/s-47.4°C4.2%16.2hPa2.4V00:00:0000:00:0000:00:00
AA1-152026-09-02 12:39:1855.0869919.7366286°95km/h1402m8m/s-47.5°C4.2%16.2hPa2.4V00:00:0000:00:0000:00:00
AA1-152026-09-02 12:39:1555.0868219.7359474°95km/h1380m8.3m/s-47.3°C4.1%16.2hPa2.4V00:00:0000:00:0000:00:00
AA1-152026-09-02 12:39:1455.0866019.7352660°93km/h1363m8.2m/s-47.3°C4.1%16.3hPa2.4V00:00:0000:00:0000:00:00
AA1-152026-09-02 12:39:1355.0864719.7349356°97km/h1355m8.1m/s-47.3°C4.1%16.3hPa2.4V00:00:0000:00:0000:00:00
AA1-152026-09-02 12:39:1255.0862519.7347350°97km/h1341m7.9m/s-47.3°C4.1%16.4hPa2.4V00:00:0000:00:0000:00:00
AA1-152026-09-02 12:39:1055.0860819.7344141°95km/h1337m8m/s-47.4°C4.1%16.3hPa2.4V00:00:0000:00:0000:00:00
AA1-152026-09-02 12:39:0855.0856819.7338729°95km/h1331m8.8m/s-47.4°C4.1%16.4hPa2.4V00:00:0000:00:0000:00:00
AA1-152026-09-02 12:39:0755.0852519.7329319°95km/h1335m8.1m/s-47.4°C4.1%16.4hPa2.4V00:00:0000:00:0000:00:00
AA1-152026-09-02 12:39:0655.0850019.7328111°97km/h1324m8.2m/s-47.4°C4%16.4hPa2.4V00:00:0000:00:0000:00:00
AA1-152026-09-02 12:39:0455.0844819.7327095km/h1301m8m/s-47.4°C4%16.5hPa2.4V00:00:0000:00:0000:00:00
AA1-152026-09-02 12:39:0255.0839819.73267360°100km/h1280m8m/s-47.4°C4%16.5hPa2.4V00:00:0000:00:0000:00:00
AA1-152026-09-02 12:39:0055.0837419.7326593km/h1271m8m/s-47.4°C4%16.5hPa2.4V00:00:0000:00:0000:00:00
AA1-152026-09-02 12:38:5955.0835019.73264100km/h1263m8m/s-47.4°C3.9%16.5hPa2.4V00:00:0000:00:0000:00:00
AA1-152026-09-02 12:38:5855.0818319.7325593km/h1204m8m/s-47.5°C3.9%16.6hPa2.4V00:00:0000:00:0000:00:00
AA1-152026-09-02 12:38:5555.0815919.7325495km/h1195m8.1m/s-47.5°C3.9%16.6hPa2.4V00:00:0000:00:0000:00:00
AA1-152026-09-02 12:38:5055.0811119.7325393km/h1177m8m/s-47.6°C3.9%16.7hPa2.4V00:00:0000:00:0000:00:00
AA1-152026-09-02 12:38:4755.0806119.73251360°95km/h1159m8m/s-47.5°C3.9%16.7hPa2.4V00:00:0000:00:0000:00:00
AA1-152026-09-02 12:38:4655.0803619.73250100km/h1151m8m/s-47.6°C3.9%16.7hPa2.4V00:00:0000:00:0000:00:00
AA1-152026-09-02 12:38:4555.0794119.7320943°100km/h1116m8m/s-47.5°C4%16.8hPa2.4V00:00:0000:00:0000:00:00
AA1-152026-09-02 12:38:4455.0792419.7317559°97km/h1108m8m/s-47.4°C3.9%16.8hPa2.4V00:00:0000:00:0000:00:00
AA1-152026-09-02 12:38:4155.0791519.7313480°97km/h1099m8m/s-47.4°C3.9%16.9hPa2.4V00:00:0000:00:0000:00:00
AA1-152026-09-02 12:38:3955.0791419.7309299°97km/h1091m8m/s-47.5°C4%16.8hPa2.4V00:00:0000:00:0000:00:00
AA1-152026-09-02 12:38:3855.0792019.73051116°97km/h1082m8.1m/s-47.5°C4%16.9hPa2.4V00:00:0000:00:0000:00:00
AA1-152026-09-02 12:38:3755.0795019.72990153°99km/h1064m8.1m/s-47.5°C4%16.9hPa2.4V00:00:0000:00:0000:00:00
AA1-152026-09-02 12:38:3555.0797119.72976171°95km/h1056m8m/s-47.4°C3.9%16.9hPa2.4V00:00:0000:00:0000:00:00
AA1-152026-09-02 12:38:3355.0802619.72997224°95km/h1031m8m/s-47.4°C3.9%17hPa2.4V00:00:0000:00:0000:00:00
AA1-152026-09-02 12:38:3255.0802919.73091270°95km/h1014m8.1m/s-47.5°C3.9%17hPa2.4V00:00:0000:00:0000:00:00
AA1-152026-09-02 12:38:2855.0802619.73130270°95km/h1007m8m/s-47.5°C4%17.1hPa2.4V00:00:0000:00:0000:00:00
AA1-152026-09-02 12:38:2755.0802219.73169270°99km/h1000m8m/s-47.5°C4%17.1hPa2.4V00:00:0000:00:0000:00:00
AA1-152026-09-02 12:38:2655.0801919.73208270°99km/h994m8m/s-47.5°C4%17.1hPa2.4V00:00:0000:00:0000:00:00
AA1-152026-09-02 12:38:2555.0801619.73247270°95km/h988m8m/s-47.5°C4%17.1hPa2.4V00:00:0000:00:0000:00:00
AA1-152026-09-02 12:38:2455.0801319.73282270°95km/h982m8m/s-47.5°C4%17.1hPa2.4V00:00:0000:00:0000:00:00
AA1-152026-09-02 12:38:2255.0799419.73431270°95km/h964m7.9m/s-47.4°C4%17.2hPa2.4V00:00:0000:00:0000:00:00
AA1-152026-09-02 12:38:2255.0798519.73462270°99km/h960m8.1m/s-47.4°C3.9%17.2hPa2.4V00:00:0000:00:0000:00:00
AA1-152026-09-02 12:38:2055.0797019.73488270°99km/h959m8.1m/s-47.5°C4%17.2hPa2.4V00:00:0000:00:0000:00:00
AA1-152026-09-02 12:38:1855.0795919.73517270°95km/h955m8.1m/s-47.6°C4%17.2hPa2.4V00:00:0000:00:0000:00:00
AA1-152026-09-02 12:38:1555.0792719.73565271°95km/h949m8.1m/s-47.6°C4.1%17.3hPa2.4V00:00:0000:00:0000:00:00
AA1-152026-09-02 12:38:1455.0789319.73565262°97km/h952m7.9m/s-47.6°C4%17.3hPa2.4V00:00:0000:00:0000:00:00
AA1-152026-09-02 12:38:1355.0784619.73544257°95km/h961m8m/s-47.5°C4.1%17.3hPa2.4V00:00:0000:00:0000:00:00
AA1-152026-09-02 12:38:1255.0747719.73429205°89km/h1167m4.8m/s-47.6°C4.1%17.4hPa2.4V00:00:0000:00:0000:00:00
AA1-152026-09-02 12:38:0755.0738719.73402196°93km/h1446m6.1m/s-47.5°C4.2%17.4hPa2.4V00:00:0000:00:0000:00:00
AA1-152026-09-02 12:37:5754.9213419.8960018°7km/h159087m7.6m/s-47.9°C4.2%17.6hPa2.4V00:00:0000:00:0000:00:00
AA1-152026-09-02 12:37:4754.9212019.89637271°13km/h2630m8.1m/s-47.8°C4.2%17.8hPa2.4V00:00:0000:00:0000:00:00
AA1-152026-09-02 12:37:3654.9212719.89691261°15km/h2541m7.7m/s-47.7°C4.2%18hPa2.4V00:00:0000:00:0000:00:00
AA1-152026-09-02 12:37:2554.9213319.89775271°15km/h2470m8.1m/s-47.9°C4.4%18.2hPa2.4V00:00:0000:00:0000:00:00
AA1-152026-09-02 12:37:1454.9211819.89868270°16km/h2348m8.1m/s-48.3°C4.5%18.4hPa2.4V00:00:0000:00:0000:00:00
AA1-152026-09-02 12:37:0354.9211319.89909268°13km/h2240m8.3m/s-48.3°C4.6%18.7hPa2.4V00:00:0000:00:0000:00:00
AA1-152026-09-02 12:36:5354.9210919.89966269°13km/h2152m8m/s-48.4°C4.7%18.9hPa2.4V00:00:0000:00:0000:00:00
AA1-152026-09-02 12:36:4154.9210519.90043269°15km/h2067m8m/s-48.4°C4.7%19.1hPa2.4V00:00:0000:00:0000:00:00
AA1-152026-09-02 12:36:3054.9212119.90135269°18km/h1995m8.1m/s-48.2°C4.6%19.3hPa2.4V00:00:0000:00:0000:00:00
AA1-152026-09-02 12:36:2854.9212119.90142274°13km/h1986m8.5m/s-48.2°C4.6%19.3hPa2.4V00:00:0000:00:0000:00:00
AA1-152026-09-02 12:36:2654.9212119.90162269°15km/h1967m7.9m/s-48.3°C4.6%19.4hPa2.4V00:00:0000:00:0000:00:00
AA1-152026-09-02 12:36:2454.9212319.90169269°13km/h1960m8m/s-48.2°C4.6%19.4hPa2.4V00:00:0000:00:0000:00:00
AA1-152026-09-02 12:36:2354.9212319.90176269°15km/h1952m8.2m/s-48.4°C4.6%19.4hPa2.4V00:00:0000:00:0000:00:00
AA1-152026-09-02 12:36:2254.9212419.90182269°13km/h1944m8.3m/s-48.3°C4.6%19.4hPa2.4V00:00:0000:00:0000:00:00
AA1-152026-09-02 12:36:2054.9212119.90203270°16km/h1917m8.1m/s-48.3°C4.6%19.5hPa2.4V00:00:0000:00:0000:00:00
AA1-152026-09-02 12:36:1954.9212219.90211270°13km/h1910m8m/s-48.3°C4.6%19.5hPa2.4V00:00:0000:00:0000:00:00
AA1-152026-09-02 12:36:1654.9212219.90217270°16km/h1902m8m/s-48.3°C4.5%19.6hPa2.4V00:00:0000:00:0000:00:00
AA1-152026-09-02 12:36:1554.9212319.90223269°13km/h1894m8m/s-48.3°C4.6%19.6hPa2.4V00:00:0000:00:0000:00:00
AA1-152026-09-02 12:36:1454.9212519.90237271°13km/h1878m7.9m/s-48.3°C4.6%19.6hPa2.4V00:00:0000:00:0000:00:00
AA1-152026-09-02 12:36:1354.9212519.90245270°16km/h1871m8m/s-48.2°C4.5%19.7hPa2.4V00:00:0000:00:0000:00:00
AA1-152026-09-02 12:36:1154.9212619.90252270°13km/h1864m8m/s-48.2°C4.5%19.7hPa2.4V00:00:0000:00:0000:00:00
AA1-152026-09-02 12:36:0954.9213319.90271269°15km/h1843m8m/s-48.2°C4.6%19.7hPa2.4V00:00:0000:00:0000:00:00
AA1-152026-09-02 12:36:0854.9213719.90277271°13km/h1836m8m/s-48.3°C4.6%19.8hPa2.4V00:00:0000:00:0000:00:00
AA1-152026-09-02 12:36:0654.9214219.90286270°16km/h1831m7.5m/s-48.3°C4.6%19.8hPa2.4V00:00:0000:00:0000:00:00
AA1-152026-09-02 12:36:0454.9211719.90302270°15km/h1828m8.2m/s-48.2°C4.5%19.8hPa2.4V00:00:0000:00:0000:00:00
AA1-152026-09-02 12:36:0354.9212119.90296263°11km/h1814m8.7m/s-48.3°C4.5%19.8hPa2.4V00:00:0000:00:0000:00:00
AA1-152026-09-02 12:36:0254.9212219.90304270°15km/h1806m8.1m/s-48.3°C4.5%19.9hPa2.4V00:00:0000:00:0000:00:00
AA1-152026-09-02 12:36:0154.9212319.90310262°11km/h1797m8.8m/s-48.2°C4.5%19.9hPa2.4V00:00:0000:00:0000:00:00
AA1-152026-09-02 12:35:5954.9212319.90333270°16km/h1785m8.1m/s-48.3°C4.6%19.9hPa2.4V00:00:0000:00:0000:00:00
AA1-152026-09-02 12:35:5754.9212419.90350270°16km/h1773m8.1m/s-48.2°C4.5%19.9hPa2.4V00:00:0000:00:0000:00:00
AA1-152026-09-02 12:35:5654.9212619.90359270°13km/h1766m8m/s-48.3°C4.6%20hPa2.4V00:00:0000:00:0000:00:00
AA1-152026-09-02 12:35:5454.9212719.90370270°13km/h1751m8m/s-48.1°C4.5%20hPa2.4V00:00:0000:00:0000:00:00
AA1-152026-09-02 12:35:5354.9212719.90375270°16km/h1743m8m/s-48.1°C4.6%20.1hPa2.4V00:00:0000:00:0000:00:00
AA1-152026-09-02 12:35:5154.9212819.90382270°15km/h1732m8m/s-47.9°C4.6%20hPa2.4V00:00:0000:00:0000:00:00
AA1-152026-09-02 12:35:5054.9213019.90390270°13km/h1725m8.1m/s-47.9°C4.6%20.1hPa2.4V00:00:0000:00:0000:00:00
AA1-152026-09-02 12:35:4954.9213219.90424269°95km/h1712m8.1m/s-47.9°C4.6%20.1hPa2.4V00:00:0000:00:0000:00:00
AA1-152026-09-02 12:35:4754.9213519.90465261°93km/h1706m8.1m/s-48°C4.7%20.1hPa2.4V00:00:0000:00:0000:00:00
AA1-152026-09-02 12:35:4554.9218119.90644233°95km/h1677m8m/s-47.8°C4.8%20.2hPa2.4V00:00:0000:00:0000:00:00
AA1-152026-09-02 12:35:4254.9219519.90671226°97km/h1672m8.1m/s-47.7°C4.8%20.2hPa2.4V00:00:0000:00:0000:00:00
AA1-152026-09-02 12:35:4054.9221119.90699219°95km/h1668m8.3m/s-47.7°C4.8%20.3hPa2.4V00:00:0000:00:0000:00:00
AA1-152026-09-02 12:35:3854.9230619.90787189°97km/h1635m8.1m/s-47.6°C4.8%20.4hPa2.4V00:00:0000:00:0000:00:00
AA1-152026-09-02 12:35:3754.9235619.90788176°95km/h1615m8.1m/s-47.5°C4.9%20.4hPa2.4V00:00:0000:00:0000:00:00
AA1-152026-09-02 12:35:3454.9237919.90783171°95km/h1605m8.1m/s-47.4°C4.9%20.5hPa2.4V00:00:0000:00:0000:00:00
AA1-152026-09-02 12:35:3254.9240319.90773165°100km/h1596m8m/s-47.4°C4.8%20.5hPa2.4V00:00:0000:00:0000:00:00
AA1-152026-09-02 12:35:3154.9242719.90758159°99km/h1586m8.1m/s-47.5°C4.8%20.5hPa2.4V00:00:0000:00:0000:00:00
AA1-152026-09-02 12:35:3054.9244919.90740151°93km/h1576m8m/s-47.5°C4.8%20.5hPa2.4V00:00:0000:00:0000:00:00
AA1-152026-09-02 12:35:2854.9246919.90717146°97km/h1567m8.2m/s-47.5°C4.8%20.5hPa2.4V00:00:0000:00:0000:00:00
AA1-152026-09-02 12:35:2654.9253419.90592119°97km/h1531m8.1m/s-47.5°C4.8%20.6hPa2.4V00:00:0000:00:0000:00:00
AA1-152026-09-02 12:35:2554.9254619.90557114°99km/h1521m8.3m/s-47.5°C4.8%20.6hPa2.4V00:00:0000:00:0000:00:00
AA1-152026-09-02 12:35:2454.9255719.90521110°97km/h1509m8.3m/s-47.5°C4.9%20.7hPa2.4V00:00:0000:00:0000:00:00
AA1-152026-09-02 12:35:2154.9256919.90477105°97km/h1491m8.3m/s-47.5°C4.8%20.7hPa2.4V00:00:0000:00:0000:00:00
AA1-152026-09-02 12:35:2054.9257919.9041898°97km/h1468m8.4m/s-47.5°C4.8%20.7hPa2.4V00:00:0000:00:0000:00:00
AA1-152026-09-02 12:35:1854.9259119.9033186°95km/h1434m8.1m/s-47.6°C4.8%20.7hPa2.4V00:00:0000:00:0000:00:00
AA1-152026-09-02 12:35:1754.9258819.9029179°99km/h1423m8.3m/s-47.5°C4.8%20.8hPa2.4V00:00:0000:00:0000:00:00
AA1-152026-09-02 12:35:1654.9257619.9021270°97km/h1403m10.2m/s-47.5°C4.9%20.8hPa2.4V00:00:0000:00:0000:00:00
AA1-152026-09-02 12:35:1454.9256619.9017561°95km/h1393m8.6m/s-47.5°C4.9%20.8hPa2.4V00:00:0000:00:0000:00:00
AA1-152026-09-02 12:35:1254.9253619.9011049°93km/h1376m8m/s-47.6°C4.9%20.8hPa2.4V00:00:0000:00:0000:00:00
AA1-152026-09-02 12:35:1054.9249819.9005336°91km/h1360m8.1m/s-47.5°C4.9%20.9hPa2.4V00:00:0000:00:0000:00:00
AA1-152026-09-02 12:35:0754.9243319.8999319°95km/h1333m8.2m/s-47.6°C4.9%20.9hPa2.4V00:00:0000:00:0000:00:00
AA1-152026-09-02 12:35:0554.9235619.8996095km/h1306m8.4m/s-47.6°C4.9%21hPa2.4V00:00:0000:00:0000:00:00
AA1-152026-09-02 12:35:0454.9233319.8996195km/h1296m8.2m/s-47.6°C4.9%21hPa2.4V00:00:0000:00:0000:00:00
AA1-152026-09-02 12:35:0254.9230919.89961100km/h1287m8.1m/s-47.6°C4.9%21hPa2.4V00:00:0000:00:0000:00:00
AA1-152026-09-02 12:35:0054.9226119.89963100km/h1265m8.1m/s-47.7°C4.9%21.1hPa2.4V00:00:0000:00:0000:00:00
AA1-152026-09-02 12:34:5954.9223719.8996595km/h1255m8.1m/s-47.7°C4.9%21.1hPa2.4V00:00:0000:00:0000:00:00
AA1-152026-09-02 12:34:5854.9221319.89966100km/h1246m8.1m/s-47.8°C4.9%21.1hPa2.4V00:00:0000:00:0000:00:00
AA1-152026-09-02 12:34:5654.9216319.8996995km/h1224m7.9m/s-47.9°C4.9%21.2hPa2.4V00:00:0000:00:0000:00:00
AA1-152026-09-02 12:34:5554.9213719.8996993km/h1213m8m/s-48°C4.9%21.2hPa2.4V00:00:0000:00:0000:00:00
AA1-152026-09-02 12:34:5454.9206319.89969360°95km/h1184m8m/s-48.1°C4.9%21.3hPa2.4V00:00:0000:00:0000:00:00
AA1-152026-09-02 12:34:5254.9203919.89970100km/h1175m8m/s-48.1°C4.9%21.3hPa2.4V00:00:0000:00:0000:00:00
AA1-152026-09-02 12:34:5054.9201419.8997091km/h1164m7.5m/s-48.2°C4.9%21.3hPa2.4V00:00:0000:00:0000:00:00
AA1-152026-09-02 12:34:4954.9196419.89969360°95km/h1144m8.6m/s-48°C4.9%21.4hPa2.4V00:00:0000:00:0000:00:00
AA1-152026-09-02 12:34:4854.9193919.89969100km/h1134m8.2m/s-48.1°C4.9%21.4hPa2.4V00:00:0000:00:0000:00:00
AA1-152026-09-02 12:34:4654.9191419.8996895km/h1126m8.9m/s-48°C4.9%21.4hPa2.4V00:00:0000:00:0000:00:00
AA1-152026-09-02 12:34:4554.9189019.8996695km/h1118m8.1m/s-48°C4.9%21.4hPa2.4V00:00:0000:00:0000:00:00
AA1-152026-09-02 12:34:4454.9186819.8995526°93km/h1111m7.9m/s-48.1°C4.9%21.4hPa2.4V00:00:0000:00:0000:00:00
AA1-152026-09-02 12:34:4254.9182319.8985880°99km/h1085m8.2m/s-48.1°C4.9%21.4hPa2.4V00:00:0000:00:0000:00:00
AA1-152026-09-02 12:34:4154.9182319.8981599°97km/h1077m8.2m/s-48°C4.9%21.5hPa2.4V00:00:0000:00:0000:00:00
AA1-152026-09-02 12:34:4054.9183019.89775115°97km/h1068m8.2m/s-48°C4.8%21.5hPa2.4V00:00:0000:00:0000:00:00
AA1-152026-09-02 12:34:3854.9184419.89741134°95km/h1061m8.2m/s-48°C4.8%21.6hPa2.4V00:00:0000:00:0000:00:00
AA1-152026-09-02 12:34:3754.9186319.89716153°99km/h1053m8.1m/s-48°C4.9%21.6hPa2.4V00:00:0000:00:0000:00:00
AA1-152026-09-02 12:34:3554.9190919.89704191°91km/h1040m8.1m/s-48°C4.9%21.6hPa2.4V00:00:0000:00:0000:00:00
AA1-152026-09-02 12:34:3354.9196419.89771242°97km/h1020m8.3m/s-48°C4.9%21.7hPa2.4V00:00:0000:00:0000:00:00
AA1-152026-09-02 12:34:3254.9197419.89853270°99km/h1009m8m/s-47.9°C4.9%21.7hPa2.4V00:00:0000:00:0000:00:00
AA1-152026-09-02 12:34:3054.9197519.89897270°95km/h1000m8.1m/s-47.8°C4.9%21.7hPa2.4V00:00:0000:00:0000:00:00
AA1-152026-09-02 12:34:2854.9197619.89939270°95km/h990m8m/s-47.9°C4.9%21.8hPa2.4V00:00:0000:00:0000:00:00
AA1-152026-09-02 12:34:2654.9197619.90027270°97km/h973m8m/s-47.8°C4.9%21.8hPa2.4V00:00:0000:00:0000:00:00
AA1-152026-09-02 12:34:2454.9198219.90165270°97km/h942m8.1m/s-47.8°C5%21.9hPa2.4V00:00:0000:00:0000:00:00
AA1-152026-09-02 12:34:2454.9198219.90207270°95km/h933m8m/s-47.7°C5%21.9hPa2.4V00:00:0000:00:0000:00:00
AA1-152026-09-02 12:34:2254.9198319.90333270°95km/h906m8.1m/s-47.8°C5.1%21.9hPa2.4V00:00:0000:00:0000:00:00
AA1-152026-09-02 12:34:2054.9198319.90374270°95km/h896m8m/s-47.8°C5.2%22hPa2.4V00:00:0000:00:0000:00:00
AA1-152026-09-02 12:34:1754.9198219.90416270°95km/h888m8m/s-47.7°C5.2%22hPa2.4V00:00:0000:00:0000:00:00
AA1-152026-09-02 12:34:1654.9198219.90459271°95km/h880m8m/s-47.7°C5.1%22hPa2.4V00:00:0000:00:0000:00:00
AA1-152026-09-02 12:34:1554.9198319.90503262°97km/h872m8.1m/s-47.7°C5.1%22hPa2.4V00:00:0000:00:0000:00:00
AA1-152026-09-02 12:34:1454.9198719.90545256°93km/h864m8m/s-47.7°C5.2%22hPa2.4V00:00:0000:00:0000:00:00
AA1-152026-09-02 12:34:1254.9234219.90755214°97km/h1004m7.5m/s-47.5°C5.1%22.1hPa2.4V00:00:0000:00:0000:00:00
AA1-152026-09-02 12:34:1154.9265819.91361195°91km/h970m6.5m/s-47.5°C5.1%22.1hPa2.4V00:00:0000:00:0000:00:00
AA1-152026-09-02 12:34:0354.8832720.03962236°22km/h159087m5.1m/s-47.4°C5.1%22.3hPa2.4V00:00:0000:00:0000:00:00
AA1-152026-09-02 12:33:5354.8835220.04041349°15km/h2961m8.3m/s-47.4°C5.2%22.5hPa2.4V00:00:0000:00:0000:00:00
AA1-152026-09-02 12:33:4254.8832320.0406616km/h2865m8.1m/s-47.6°C5.2%22.7hPa2.4V00:00:0000:00:0000:00:00
AA1-152026-09-02 12:33:3154.8827720.0405411km/h2773m8m/s-47.7°C5.2%23hPa2.4V00:00:0000:00:0000:00:00
SP3BTT-102026-09-02 11:54:2254.7870118.0112787°55km/h12350m6.6m/s0°C0%0hPa0V00:00:0000:00:0000:00:00
SP3BTT-102026-09-02 11:52:3154.7834917.9864159°58km/h11771m5.3m/s0°C0%0hPa0V00:00:0000:00:0000:00:00
SP3BTT-102026-09-02 11:51:4354.7824617.9753080°78km/h11515m5.7m/s0°C0%0hPa0V00:00:0000:00:0000:00:00
SP3BTT-102026-09-02 11:48:2854.7764117.9105180°88km/h10444m5.4m/s0°C0%0hPa0V00:00:0000:00:0000:00:00
SP3BTT-102026-09-02 11:47:4154.7745817.8931170°91km/h10210m9.5m/s0°C0%0hPa0V00:00:0000:00:0000:00:00
SP3BTT-102026-09-02 11:46:4854.7720417.8742372°80km/h9902m4.8m/s0°C0%0hPa0V00:00:0000:00:0000:00:00


GPX KML Map

© wettersonde.net (DO2JMG) - 2026  -  -